createdAt,value
2024-01-11T00:05:33.515Z,30.10
2024-01-11T00:15:34.224Z,25.10
2024-01-11T00:25:34.763Z,28.50
2024-01-11T00:35:42.405Z,27.00
2024-01-11T00:45:36.016Z,22.40
2024-01-11T00:55:36.516Z,20.30
2024-01-11T01:05:37.192Z,22.70
2024-01-11T01:15:37.762Z,23.30
2024-01-11T01:25:38.343Z,21.90
2024-01-11T01:35:38.980Z,23.70
2024-01-11T01:45:39.591Z,27.00
2024-01-11T01:55:40.137Z,33.10
2024-01-11T02:05:40.788Z,33.50
2024-01-11T02:15:41.355Z,31.10
2024-01-11T02:25:41.968Z,30.50
2024-01-11T02:35:45.236Z,29.90
2024-01-11T02:45:43.956Z,30.50
2024-01-11T02:55:43.474Z,29.40
2024-01-11T03:05:44.187Z,27.00
2024-01-11T03:15:44.730Z,27.60
2024-01-11T03:25:45.330Z,35.00
2024-01-11T03:35:45.849Z,28.70
2024-01-11T03:45:46.422Z,25.70
2024-01-11T03:55:46.956Z,24.70
2024-01-11T04:05:47.767Z,27.20
2024-01-11T04:15:47.964Z,29.00
2024-01-11T04:25:48.543Z,28.20
2024-01-11T04:35:49.275Z,31.60
2024-01-11T04:45:49.899Z,30.50
2024-01-11T04:55:50.402Z,33.40
2024-01-11T05:05:51.158Z,34.50
2024-01-11T05:15:51.735Z,37.00
2024-01-11T05:25:52.323Z,36.40
2024-01-11T05:35:52.860Z,41.50
2024-01-11T05:45:53.460Z,40.40
2024-01-11T05:55:55.333Z,51.60
2024-01-11T06:05:54.850Z,46.00
2024-01-11T06:15:55.409Z,49.70
2024-01-11T06:25:56.095Z,44.20
2024-01-11T06:36:03.684Z,47.80
2024-01-11T06:45:57.149Z,48.10
2024-01-11T06:55:57.702Z,48.50
2024-01-11T07:05:58.434Z,52.10
2024-01-11T07:15:58.957Z,57.10
2024-01-11T07:25:59.547Z,55.30
2024-01-11T07:36:00.197Z,59.80
2024-01-11T07:46:00.852Z,54.20
2024-01-11T07:56:01.345Z,60.50
2024-01-11T08:06:01.983Z,51.10
2024-01-11T08:16:02.561Z,54.80
2024-01-11T08:26:03.092Z,55.20
2024-01-11T08:36:03.733Z,56.70
2024-01-11T08:46:04.068Z,58.90
2024-01-11T08:56:04.593Z,59.40
2024-01-11T09:06:05.270Z,57.90
2024-01-11T09:16:05.761Z,55.30
2024-01-11T09:26:06.336Z,55.90
2024-01-11T09:36:06.852Z,55.50
2024-01-11T09:46:07.379Z,57.80
2024-01-11T09:56:07.913Z,73.50
2024-01-11T10:06:08.429Z,58.40
2024-01-11T10:16:08.898Z,58.80
2024-01-11T10:26:09.452Z,54.60
2024-01-11T10:36:09.992Z,48.90
2024-01-11T10:46:10.582Z,45.90
2024-01-11T10:56:11.139Z,40.80
2024-01-11T11:06:11.879Z,47.80
2024-01-11T11:16:12.453Z,42.60
2024-01-11T11:26:13.013Z,40.20
2024-01-11T11:36:13.500Z,39.40
2024-01-11T11:46:14.031Z,37.30
2024-01-11T11:56:14.563Z,38.50
2024-01-11T12:06:15.182Z,43.80
2024-01-11T12:16:15.693Z,44.10
2024-01-11T12:26:16.547Z,48.20
2024-01-11T12:36:24.121Z,42.80
2024-01-11T12:46:17.617Z,52.30
2024-01-11T12:56:18.288Z,43.50
2024-01-11T13:06:19.030Z,49.20
2024-01-11T13:16:19.566Z,49.60
2024-01-11T13:26:21.449Z,45.60
2024-01-11T13:36:20.638Z,35.70
2024-01-11T13:46:21.194Z,45.40
2024-01-11T13:56:23.339Z,41.10
2024-01-11T14:06:22.632Z,47.60
2024-01-11T14:16:25.134Z,43.90
2024-01-11T14:26:24.037Z,64.50
2024-01-11T14:36:24.493Z,30.00
2024-01-11T14:46:25.021Z,31.00
2024-01-11T14:56:25.514Z,32.00
2024-01-11T15:06:26.143Z,31.40
2024-01-11T15:16:26.641Z,28.00
2024-01-11T15:26:27.242Z,27.10
2024-01-11T15:36:27.702Z,27.90
2024-01-11T15:46:28.231Z,25.60
2024-01-11T15:56:28.770Z,26.90
2024-01-11T16:06:29.458Z,27.60
2024-01-11T16:16:30.038Z,30.80
2024-01-11T16:26:30.856Z,29.90
2024-01-11T16:36:31.096Z,25.40
2024-01-11T16:46:31.676Z,31.00
2024-01-11T16:56:32.280Z,35.40
2024-01-11T17:06:32.798Z,33.40
2024-01-11T17:16:33.352Z,36.30
2024-01-11T17:26:34.038Z,33.30
2024-01-11T17:36:34.564Z,36.70
2024-01-11T17:46:36.324Z,41.70
2024-01-11T17:56:36.036Z,39.20
2024-01-11T18:06:36.716Z,39.00
2024-01-11T18:16:37.268Z,39.80
2024-01-11T18:26:37.937Z,38.00
2024-01-11T18:36:45.514Z,38.90
2024-01-11T18:46:39.085Z,35.70
2024-01-11T18:56:39.671Z,38.70
2024-01-11T19:06:40.399Z,40.60
2024-01-11T19:16:41.097Z,40.80
2024-01-11T19:26:41.731Z,41.10
2024-01-11T19:36:42.260Z,38.10
2024-01-11T19:46:42.910Z,37.40
2024-01-11T19:56:43.476Z,40.70
2024-01-11T20:06:44.073Z,42.10
2024-01-11T20:16:44.609Z,38.10
2024-01-11T20:26:45.229Z,39.30
2024-01-11T20:36:45.778Z,41.40
2024-01-11T20:46:46.349Z,38.10
2024-01-11T20:56:46.956Z,35.50
2024-01-11T21:06:47.683Z,34.10
2024-01-11T21:16:48.321Z,34.60
2024-01-11T21:26:48.941Z,32.10
2024-01-11T21:36:49.496Z,32.50
2024-01-11T21:46:50.089Z,33.90
2024-01-11T21:56:50.692Z,33.40
2024-01-11T22:06:51.373Z,33.80
2024-01-11T22:16:51.940Z,32.40
2024-01-11T22:26:52.567Z,35.80
2024-01-11T22:36:53.130Z,32.50
2024-01-11T22:46:53.702Z,31.50
2024-01-11T22:56:54.268Z,29.80
2024-01-11T23:06:54.838Z,27.90
2024-01-11T23:16:55.366Z,29.90
2024-01-11T23:26:56.033Z,31.20
2024-01-11T23:36:56.545Z,33.70
2024-01-11T23:46:57.115Z,33.70
2024-01-11T23:56:57.773Z,33.60
